RYR1SJ ESSA-LEMG
Flight info
| Callsign | RYR1SJ |
|---|---|
| Flight time | N/A |
| Altitude | 35000 |
| Route | PETEV N872 ELPAX DCT ASVAN DCT DOSUR DCT WANZA DCT GISEB/N0451F340 DCT WOODY/N0450F330 N872 MEDIL DCT KOVIN DCT DUCRA UM728 RESMI UN857 DISAK DCT DIRMO DCT ARTAX DCT BEBIX DCT LMG DCT UVELI DCT OSMOB DCT VAVIX DCT NETUK/N0458F350 N857 BAN N10 CJN L27 BLN |
| Aircraft | B738/M-SABDFGRVYL/LB2 |
Departure
| Time | 2026-05-04 09:19 |
|---|---|
| Airport | Stockholm-Arlanda Airport (ESSA) |
Arrival
| Time | N/A |
|---|---|
| Airport | Málaga-Costa del Sol Airport (LEMG) |
| Time | Latitude | Longitude | Altitude | Speed | Heading |
|---|---|---|---|---|---|
| 2026-05-04 08:49 | 59.64781 | 17.92398 | 111 ft | 0 kts | 42° |
| 2026-05-04 09:07 | 59.64753 | 17.92370 | 111 ft | 2 kts | 4° |
| 2026-05-04 09:08 | 59.64738 | 17.92372 | 111 ft | 2 kts | 346° |
| 2026-05-04 09:08 | 59.64724 | 17.92382 | 111 ft | 2 kts | 328° |
| 2026-05-04 09:08 | 59.64712 | 17.92401 | 111 ft | 2 kts | 310° |
| 2026-05-04 09:08 | 59.64704 | 17.92425 | 111 ft | 2 kts | 292° |
| 2026-05-04 09:09 | 59.64702 | 17.92439 | 111 ft | 1 kts | 282° |
| 2026-05-04 09:09 | 59.64701 | 17.92447 | 111 ft | 0 kts | 284° |
| 2026-05-04 09:12 | 59.64706 | 17.92405 | 111 ft | 7 kts | 284° |
| 2026-05-04 09:12 | 59.64727 | 17.92279 | 110 ft | 9 kts | 291° |
| 2026-05-04 09:14 | 59.65264 | 17.92240 | 106 ft | 26 kts | 11° |
| 2026-05-04 09:14 | 59.65437 | 17.92301 | 107 ft | 24 kts | 9° |
| 2026-05-04 09:14 | 59.65622 | 17.92367 | 107 ft | 29 kts | 11° |
| 2026-05-04 09:14 | 59.65803 | 17.92431 | 109 ft | 18 kts | 11° |
| 2026-05-04 09:15 | 59.65925 | 17.92483 | 110 ft | 17 kts | 9° |
| 2026-05-04 09:15 | 59.66063 | 17.92528 | 112 ft | 22 kts | 10° |
| 2026-05-04 09:15 | 59.66238 | 17.92591 | 115 ft | 28 kts | 10° |
| 2026-05-04 09:15 | 59.66439 | 17.92655 | 119 ft | 26 kts | 358° |
| 2026-05-04 09:17 | 59.66558 | 17.92347 | 120 ft | 5 kts | 195° |
| 2026-05-04 09:18 | 59.66519 | 17.92327 | 120 ft | 11 kts | 192° |
| 2026-05-04 09:18 | 59.66185 | 17.92214 | 114 ft | 85 kts | 190° |
| 2026-05-04 09:18 | 59.65377 | 17.91919 | 104 ft | 149 kts | 191° |
| 2026-05-04 09:18 | 59.64223 | 17.91496 | 373 ft | 177 kts | 191° |
| 2026-05-04 09:19 | 59.63031 | 17.91039 | 1165 ft | 178 kts | 193° |
| 2026-05-04 09:19 | 59.61823 | 17.90574 | 1939 ft | 176 kts | 197° |
| 2026-05-04 09:19 | 59.60703 | 17.89749 | 2506 ft | 177 kts | 213° |
| 2026-05-04 09:19 | 59.59763 | 17.88116 | 2847 ft | 188 kts | 240° |
| 2026-05-04 09:20 | 59.59378 | 17.85630 | 3274 ft | 197 kts | 262° |
| 2026-05-04 09:20 | 59.59063 | 17.82884 | 3613 ft | 216 kts | 250° |
| 2026-05-04 09:20 | 59.58411 | 17.80173 | 4225 ft | 223 kts | 243° |
| 2026-05-04 09:20 | 59.57665 | 17.77413 | 4740 ft | 236 kts | 244° |
| 2026-05-04 09:21 | 59.56869 | 17.74492 | 5292 ft | 247 kts | 240° |
| 2026-05-04 09:21 | 59.55830 | 17.71725 | 5880 ft | 257 kts | 230° |
| 2026-05-04 09:21 | 59.54591 | 17.69219 | 6579 ft | 262 kts | 227° |
| 2026-05-04 09:21 | 59.53275 | 17.66688 | 7332 ft | 264 kts | 227° |
| 2026-05-04 09:22 | 59.51986 | 17.64159 | 8049 ft | 266 kts | 228° |
| 2026-05-04 09:22 | 59.50684 | 17.61541 | 8782 ft | 268 kts | 229° |
| 2026-05-04 09:22 | 59.49390 | 17.58909 | 9481 ft | 270 kts | 229° |
| 2026-05-04 09:22 | 59.48084 | 17.56243 | 10105 ft | 276 kts | 230° |
| 2026-05-04 09:23 | 59.46732 | 17.53474 | 10486 ft | 289 kts | 229° |
| 2026-05-04 09:23 | 59.45337 | 17.50629 | 11133 ft | 292 kts | 229° |
| 2026-05-04 09:23 | 59.43922 | 17.47767 | 11770 ft | 295 kts | 229° |
| 2026-05-04 09:23 | 59.42491 | 17.44886 | 12458 ft | 295 kts | 229° |
| 2026-05-04 09:25 | 59.32337 | 17.24384 | 16868 ft | 306 kts | 228° |
| 2026-05-04 09:25 | 59.30868 | 17.21437 | 17451 ft | 307 kts | 228° |
| 2026-05-04 09:26 | 59.29378 | 17.18452 | 18000 ft | 309 kts | 228° |
| 2026-05-04 09:26 | 59.27884 | 17.15462 | 18519 ft | 311 kts | 228° |
| 2026-05-04 09:26 | 59.26346 | 17.12393 | 19080 ft | 313 kts | 228° |
| 2026-05-04 09:26 | 59.24808 | 17.09325 | 19613 ft | 315 kts | 228° |
| 2026-05-04 09:27 | 59.23293 | 17.06307 | 20123 ft | 317 kts | 228° |
| 2026-05-04 09:27 | 59.21740 | 17.03218 | 20622 ft | 319 kts | 228° |
| 2026-05-04 09:27 | 59.20162 | 17.00143 | 21116 ft | 322 kts | 226° |
| 2026-05-04 09:27 | 59.18475 | 16.97233 | 21550 ft | 326 kts | 223° |
| 2026-05-04 09:28 | 59.16731 | 16.94443 | 22034 ft | 327 kts | 222° |
| 2026-05-04 09:28 | 59.14946 | 16.91637 | 22472 ft | 330 kts | 221° |
| 2026-05-04 09:28 | 59.13177 | 16.88842 | 22898 ft | 332 kts | 222° |
| 2026-05-04 09:28 | 59.11391 | 16.86000 | 23346 ft | 334 kts | 222° |
| 2026-05-04 09:29 | 59.09602 | 16.83131 | 23763 ft | 336 kts | 222° |
| 2026-05-04 09:29 | 59.07786 | 16.80209 | 24223 ft | 337 kts | 222° |
| 2026-05-04 09:29 | 59.05980 | 16.77300 | 24610 ft | 339 kts | 222° |
| 2026-05-04 09:29 | 59.04166 | 16.74377 | 24989 ft | 341 kts | 222° |
| 2026-05-04 09:30 | 59.02344 | 16.71443 | 25383 ft | 342 kts | 222° |
| 2026-05-04 09:30 | 59.00510 | 16.68496 | 25739 ft | 345 kts | 222° |
| 2026-05-04 09:30 | 58.98662 | 16.65529 | 26086 ft | 347 kts | 222° |
| 2026-05-04 09:30 | 58.96791 | 16.62529 | 26481 ft | 348 kts | 222° |
| 2026-05-04 09:31 | 58.94936 | 16.59558 | 26847 ft | 349 kts | 222° |
| 2026-05-04 09:31 | 58.93051 | 16.56543 | 27169 ft | 351 kts | 222° |
| 2026-05-04 09:31 | 58.91166 | 16.53532 | 27453 ft | 353 kts | 222° |
| 2026-05-04 09:31 | 58.89278 | 16.50521 | 27884 ft | 352 kts | 222° |
| 2026-05-04 09:32 | 58.87378 | 16.47496 | 28163 ft | 355 kts | 222° |
| 2026-05-04 09:32 | 58.85472 | 16.44468 | 28470 ft | 356 kts | 222° |
| 2026-05-04 09:34 | 58.71901 | 16.23037 | 30463 ft | 368 kts | 221° |
| 2026-05-04 09:34 | 58.69890 | 16.19881 | 30749 ft | 368 kts | 221° |
| 2026-05-04 09:34 | 58.67915 | 16.16787 | 30956 ft | 371 kts | 221° |
| 2026-05-04 09:34 | 58.65911 | 16.13650 | 31178 ft | 372 kts | 221° |
| 2026-05-04 09:35 | 58.63887 | 16.10488 | 31403 ft | 373 kts | 221° |
| 2026-05-04 09:35 | 58.61871 | 16.07342 | 31607 ft | 375 kts | 221° |
| 2026-05-04 09:35 | 58.59837 | 16.04173 | 31708 ft | 380 kts | 221° |
| 2026-05-04 09:35 | 58.57749 | 16.00925 | 31708 ft | 388 kts | 221° |
| 2026-05-04 09:37 | 58.42545 | 15.77438 | 31708 ft | 405 kts | 221° |
| 2026-05-04 09:37 | 58.40347 | 15.74066 | 31704 ft | 405 kts | 221° |
| 2026-05-04 09:38 | 58.35963 | 15.67353 | 31719 ft | 405 kts | 221° |
| 2026-05-04 09:38 | 58.31557 | 15.60624 | 31712 ft | 406 kts | 221° |
| 2026-05-04 09:39 | 58.27172 | 15.53948 | 31716 ft | 406 kts | 221° |
| 2026-05-04 09:39 | 58.22761 | 15.47256 | 31711 ft | 406 kts | 221° |
| 2026-05-04 09:40 | 58.18340 | 15.40572 | 31717 ft | 407 kts | 221° |
| 2026-05-04 09:40 | 58.13897 | 15.33877 | 31716 ft | 407 kts | 220° |
| 2026-05-04 09:42 | 57.96935 | 15.05820 | 31694 ft | 407 kts | 224° |
| 2026-05-04 09:43 | 57.92764 | 14.98638 | 31699 ft | 408 kts | 224° |
| 2026-05-04 09:43 | 57.88575 | 14.91493 | 31704 ft | 408 kts | 224° |
| 2026-05-04 09:44 | 57.84367 | 14.84359 | 31710 ft | 409 kts | 224° |
| 2026-05-04 09:46 | 57.67494 | 14.56021 | 31721 ft | 409 kts | 224° |
| 2026-05-04 09:46 | 57.63271 | 14.48985 | 31725 ft | 409 kts | 224° |
| 2026-05-04 09:47 | 57.59036 | 14.41954 | 31734 ft | 409 kts | 224° |
| 2026-05-04 09:49 | 57.42001 | 14.13908 | 31773 ft | 411 kts | 223° |
| 2026-05-04 09:51 | 57.27011 | 13.89521 | 31778 ft | 411 kts | 223° |
| 2026-05-04 09:51 | 57.22715 | 13.82582 | 31772 ft | 412 kts | 224° |
| 2026-05-04 09:52 | 57.18416 | 13.75661 | 31779 ft | 412 kts | 223° |
| 2026-05-04 09:52 | 57.14106 | 13.68745 | 31789 ft | 413 kts | 224° |
| 2026-05-04 09:53 | 57.09806 | 13.61865 | 31783 ft | 412 kts | 224° |
| 2026-05-04 09:53 | 57.05468 | 13.54950 | 31790 ft | 413 kts | 224° |
| 2026-05-04 09:54 | 57.01138 | 13.48070 | 31788 ft | 413 kts | 223° |
| 2026-05-04 09:54 | 56.96794 | 13.41188 | 31797 ft | 413 kts | 224° |
| 2026-05-04 09:55 | 56.92446 | 13.34322 | 31808 ft | 413 kts | 223° |
| 2026-05-04 09:55 | 56.88093 | 13.27467 | 31817 ft | 413 kts | 223° |
| 2026-05-04 09:56 | 56.83741 | 13.20641 | 31825 ft | 413 kts | 223° |
| 2026-05-04 09:56 | 56.79374 | 13.13812 | 31831 ft | 413 kts | 223° |
| 2026-05-04 09:57 | 56.75034 | 13.07049 | 31838 ft | 413 kts | 223° |
| 2026-05-04 09:57 | 56.70641 | 13.00222 | 31842 ft | 413 kts | 223° |
| 2026-05-04 09:58 | 56.66291 | 12.93484 | 31848 ft | 413 kts | 223° |
| 2026-05-04 09:58 | 56.61928 | 12.86747 | 31848 ft | 413 kts | 223° |
| 2026-05-04 10:00 | 56.44422 | 12.59925 | 31855 ft | 413 kts | 223° |
| 2026-05-04 10:04 | 56.13592 | 12.13492 | 31875 ft | 415 kts | 222° |
| 2026-05-04 10:04 | 56.09167 | 12.06911 | 31881 ft | 414 kts | 222° |
| 2026-05-04 10:05 | 56.04714 | 12.00306 | 31881 ft | 415 kts | 222° |
| 2026-05-04 10:05 | 56.00439 | 11.93453 | 31882 ft | 413 kts | 229° |
| 2026-05-04 10:06 | 55.96796 | 11.85601 | 31878 ft | 411 kts | 235° |
| 2026-05-04 10:06 | 55.93477 | 11.77334 | 31888 ft | 410 kts | 237° |
| 2026-05-04 10:08 | 55.82115 | 11.48369 | 31890 ft | 410 kts | 237° |
| 2026-05-04 10:08 | 55.78811 | 11.40131 | 31893 ft | 410 kts | 236° |
| 2026-05-04 10:09 | 55.75496 | 11.31904 | 31895 ft | 410 kts | 236° |
| 2026-05-04 10:09 | 55.72189 | 11.23726 | 31893 ft | 410 kts | 236° |
| 2026-05-04 10:10 | 55.68879 | 11.15570 | 31896 ft | 409 kts | 236° |
| 2026-05-04 10:10 | 55.65548 | 11.07390 | 31899 ft | 409 kts | 236° |
| 2026-05-04 10:11 | 55.62222 | 10.99247 | 31902 ft | 410 kts | 236° |
| 2026-05-04 10:11 | 55.58879 | 10.91097 | 31902 ft | 410 kts | 236° |
| 2026-05-04 10:12 | 55.55545 | 10.82993 | 31909 ft | 410 kts | 236° |
| 2026-05-04 10:12 | 55.52194 | 10.74876 | 31919 ft | 408 kts | 236° |
| 2026-05-04 10:13 | 55.48842 | 10.66775 | 31917 ft | 410 kts | 236° |
| 2026-05-04 10:13 | 55.45482 | 10.58685 | 31926 ft | 408 kts | 236° |
| 2026-05-04 10:14 | 55.42144 | 10.50677 | 31930 ft | 409 kts | 236° |
| 2026-05-04 10:16 | 55.28651 | 10.18569 | 31936 ft | 409 kts | 235° |
| 2026-05-04 10:16 | 55.25258 | 10.10558 | 31936 ft | 409 kts | 235° |
| 2026-05-04 10:17 | 55.21874 | 10.02600 | 31940 ft | 408 kts | 235° |
| 2026-05-04 10:19 | 55.08288 | 9.70895 | 31955 ft | 408 kts | 235° |
| 2026-05-04 10:19 | 55.04858 | 9.62958 | 31955 ft | 409 kts | 235° |
| 2026-05-04 10:20 | 55.01435 | 9.55058 | 31958 ft | 410 kts | 235° |
| 2026-05-04 10:20 | 54.97999 | 9.47156 | 31959 ft | 409 kts | 235° |
| 2026-05-04 10:21 | 54.94567 | 9.39287 | 31962 ft | 410 kts | 235° |
| 2026-05-04 10:21 | 54.91126 | 9.31423 | 31964 ft | 409 kts | 234° |
| 2026-05-04 10:22 | 54.85734 | 9.19962 | 31964 ft | 410 kts | 227° |
| 2026-05-04 10:23 | 54.81410 | 9.13534 | 31971 ft | 415 kts | 220° |
| 2026-05-04 10:25 | 54.62884 | 8.90213 | 31977 ft | 411 kts | 219° |
| 2026-05-04 10:25 | 54.58239 | 8.84367 | 31977 ft | 412 kts | 219° |
| 2026-05-04 10:26 | 54.53632 | 8.78580 | 31978 ft | 411 kts | 219° |
| 2026-05-04 10:26 | 54.49015 | 8.72795 | 31979 ft | 411 kts | 220° |
| 2026-05-04 10:27 | 54.44421 | 8.67057 | 31984 ft | 409 kts | 220° |
| 2026-05-04 10:27 | 54.39801 | 8.61301 | 31985 ft | 409 kts | 220° |
| 2026-05-04 10:28 | 54.35200 | 8.55587 | 31988 ft | 407 kts | 220° |
| 2026-05-04 10:28 | 54.30645 | 8.49940 | 31989 ft | 407 kts | 219° |
| 2026-05-04 10:29 | 54.26065 | 8.44280 | 31985 ft | 406 kts | 219° |
| 2026-05-04 10:29 | 54.21545 | 8.38515 | 31988 ft | 404 kts | 223° |
| 2026-05-04 10:30 | 54.17368 | 8.32142 | 31984 ft | 402 kts | 226° |
| 2026-05-04 10:30 | 54.13315 | 8.25596 | 31991 ft | 403 kts | 226° |
| 2026-05-04 10:31 | 54.09263 | 8.19103 | 31990 ft | 397 kts | 226° |
| 2026-05-04 10:32 | 53.95073 | 7.96868 | 31989 ft | 398 kts | 225° |
| 2026-05-04 10:33 | 53.90980 | 7.90521 | 31992 ft | 397 kts | 225° |
| 2026-05-04 10:33 | 53.86892 | 7.84199 | 31989 ft | 399 kts | 225° |
| 2026-05-04 10:34 | 53.82809 | 7.77903 | 31986 ft | 399 kts | 225° |
| 2026-05-04 10:34 | 53.78689 | 7.71568 | 31990 ft | 401 kts | 225° |
| 2026-05-04 10:35 | 53.74577 | 7.65265 | 31987 ft | 400 kts | 225° |
| 2026-05-04 10:35 | 53.70470 | 7.58990 | 32001 ft | 402 kts | 225° |
| 2026-05-04 10:36 | 53.68373 | 7.55787 | 32190 ft | 406 kts | 225° |
| 2026-05-04 10:36 | 53.66304 | 7.52631 | 32539 ft | 405 kts | 225° |
| 2026-05-04 10:36 | 53.64223 | 7.49463 | 32868 ft | 404 kts | 225° |
| 2026-05-04 10:36 | 53.62138 | 7.46293 | 33141 ft | 405 kts | 225° |
| 2026-05-04 10:37 | 53.60038 | 7.43108 | 33464 ft | 404 kts | 225° |
| 2026-05-04 10:37 | 53.57953 | 7.39951 | 33753 ft | 404 kts | 225° |
| 2026-05-04 10:37 | 53.55878 | 7.36813 | 33983 ft | 405 kts | 224° |
| 2026-05-04 10:37 | 53.53793 | 7.33662 | 33987 ft | 408 kts | 224° |
| 2026-05-04 10:39 | 53.39225 | 7.11774 | 33999 ft | 404 kts | 224° |
| 2026-05-04 10:40 | 53.35033 | 7.05514 | 33984 ft | 404 kts | 224° |
| 2026-05-04 10:40 | 53.30845 | 6.99275 | 33988 ft | 405 kts | 224° |
| 2026-05-04 10:41 | 53.26630 | 6.93016 | 33993 ft | 404 kts | 224° |
| 2026-05-04 10:41 | 53.22462 | 6.86843 | 33976 ft | 403 kts | 224° |
| 2026-05-04 10:42 | 53.18271 | 6.80653 | 33982 ft | 403 kts | 224° |
| 2026-05-04 10:42 | 53.14079 | 6.74475 | 33978 ft | 403 kts | 224° |
| 2026-05-04 10:43 | 53.09899 | 6.68332 | 33982 ft | 401 kts | 223° |
| 2026-05-04 10:45 | 52.93156 | 6.43904 | 33971 ft | 401 kts | 224° |
| 2026-05-04 10:45 | 52.88964 | 6.37826 | 33965 ft | 401 kts | 224° |
| 2026-05-04 10:46 | 52.84747 | 6.31733 | 33963 ft | 403 kts | 223° |
| 2026-05-04 10:46 | 52.80562 | 6.25700 | 33968 ft | 402 kts | 223° |
| 2026-05-04 10:47 | 52.76347 | 6.19640 | 33971 ft | 401 kts | 223° |
| 2026-05-04 10:47 | 52.72167 | 6.13645 | 33975 ft | 402 kts | 223° |
| 2026-05-04 10:49 | 52.55380 | 5.89728 | 33977 ft | 401 kts | 223° |
| 2026-05-04 10:50 | 52.51159 | 5.83757 | 33972 ft | 401 kts | 223° |
| 2026-05-04 10:52 | 52.34338 | 5.60107 | 33962 ft | 401 kts | 222° |
| 2026-05-04 10:52 | 52.30095 | 5.54178 | 33962 ft | 400 kts | 222° |
| 2026-05-04 10:54 | 52.13230 | 5.30769 | 33953 ft | 401 kts | 221° |
| 2026-05-04 10:56 | 51.96339 | 5.07574 | 33947 ft | 400 kts | 221° |
| 2026-05-04 10:57 | 51.92131 | 5.01832 | 33946 ft | 399 kts | 221° |
| 2026-05-04 10:57 | 51.87871 | 4.96106 | 33947 ft | 399 kts | 220° |
| 2026-05-04 10:58 | 51.83559 | 4.90611 | 33947 ft | 399 kts | 219° |
| 2026-05-04 10:58 | 51.79178 | 4.85098 | 33949 ft | 400 kts | 219° |
| 2026-05-04 10:59 | 51.74811 | 4.79597 | 33951 ft | 401 kts | 219° |
| 2026-05-04 10:59 | 51.70486 | 4.74143 | 33956 ft | 400 kts | 219° |
| 2026-05-04 11:00 | 51.66218 | 4.68765 | 33965 ft | 400 kts | 219° |
| 2026-05-04 11:02 | 51.48855 | 4.46994 | 33976 ft | 399 kts | 219° |
| 2026-05-04 11:05 | 51.12324 | 4.15821 | 33979 ft | 401 kts | 201° |
| 2026-05-04 11:06 | 51.07060 | 4.13014 | 33980 ft | 403 kts | 200° |
| 2026-05-04 11:06 | 51.01733 | 4.10215 | 33979 ft | 401 kts | 200° |
| 2026-05-04 11:10 | 50.65496 | 3.88452 | 33969 ft | 402 kts | 203° |
| 2026-05-04 11:12 | 50.45078 | 3.74934 | 33967 ft | 403 kts | 204° |
| 2026-05-04 11:12 | 50.39986 | 3.71439 | 33964 ft | 402 kts | 204° |
| 2026-05-04 11:13 | 50.34869 | 3.67951 | 33965 ft | 402 kts | 204° |
| 2026-05-04 11:13 | 50.29762 | 3.64492 | 33964 ft | 402 kts | 204° |
| 2026-05-04 11:14 | 50.24642 | 3.61034 | 33962 ft | 404 kts | 204° |
| 2026-05-04 11:16 | 50.04087 | 3.47243 | 33948 ft | 403 kts | 203° |
| 2026-05-04 11:16 | 49.98940 | 3.43808 | 33948 ft | 403 kts | 204° |
| 2026-05-04 11:17 | 49.93801 | 3.40391 | 33950 ft | 404 kts | 203° |
| 2026-05-04 11:19 | 49.73292 | 3.26828 | 33946 ft | 407 kts | 202° |
| 2026-05-04 11:19 | 49.68094 | 3.23408 | 33949 ft | 406 kts | 202° |
| 2026-05-04 11:20 | 49.62936 | 3.20024 | 33947 ft | 406 kts | 202° |
| 2026-05-04 11:20 | 49.57728 | 3.16616 | 33947 ft | 405 kts | 202° |
| 2026-05-04 11:22 | 49.38029 | 3.00066 | 33948 ft | 407 kts | 212° |
| 2026-05-04 11:23 | 49.33341 | 2.95235 | 33945 ft | 409 kts | 212° |
| 2026-05-04 11:25 | 49.16840 | 2.78556 | 33953 ft | 409 kts | 212° |
| 2026-05-04 11:25 | 49.12085 | 2.73788 | 33955 ft | 407 kts | 212° |
| 2026-05-04 11:27 | 48.90921 | 2.52704 | 33959 ft | 409 kts | 212° |
| 2026-05-04 11:28 | 48.86296 | 2.48124 | 33961 ft | 409 kts | 212° |
| 2026-05-04 11:28 | 48.81548 | 2.43434 | 33959 ft | 409 kts | 212° |
| 2026-05-04 11:29 | 48.76818 | 2.38771 | 33954 ft | 409 kts | 212° |
| 2026-05-04 11:29 | 48.72100 | 2.34133 | 33957 ft | 410 kts | 211° |
| 2026-05-04 11:31 | 48.55124 | 2.18784 | 33949 ft | 408 kts | 199° |
| 2026-05-04 11:33 | 48.35900 | 2.12383 | 33941 ft | 407 kts | 192° |
| 2026-05-04 11:33 | 48.30329 | 2.10857 | 33939 ft | 406 kts | 187° |
| 2026-05-04 11:34 | 48.24704 | 2.10768 | 33944 ft | 407 kts | 176° |
| 2026-05-04 11:34 | 48.19079 | 2.11769 | 33943 ft | 408 kts | 173° |
| 2026-05-04 11:35 | 48.13525 | 2.13010 | 33946 ft | 408 kts | 174° |
| 2026-05-04 11:35 | 48.07887 | 2.13710 | 33957 ft | 408 kts | 179° |
| 2026-05-04 11:36 | 48.02263 | 2.13985 | 33968 ft | 409 kts | 179° |
| 2026-05-04 11:36 | 47.96634 | 2.14227 | 33970 ft | 408 kts | 179° |
| 2026-05-04 11:37 | 47.90950 | 2.14512 | 33974 ft | 408 kts | 179° |
| 2026-05-04 11:37 | 47.85309 | 2.14822 | 33974 ft | 409 kts | 179° |
| 2026-05-04 11:38 | 47.79815 | 2.15137 | 33975 ft | 407 kts | 179° |
| 2026-05-04 11:38 | 47.74026 | 2.15474 | 33968 ft | 409 kts | 179° |
| 2026-05-04 11:39 | 47.68378 | 2.15802 | 33967 ft | 407 kts | 179° |
| 2026-05-04 11:41 | 47.48734 | 2.16940 | 33965 ft | 407 kts | 179° |
| 2026-05-04 11:41 | 47.43115 | 2.17264 | 33963 ft | 406 kts | 179° |
| 2026-05-04 11:42 | 47.37513 | 2.17585 | 33965 ft | 408 kts | 179° |
| 2026-05-04 11:42 | 47.31877 | 2.17909 | 33966 ft | 408 kts | 179° |
| 2026-05-04 11:43 | 47.26260 | 2.18231 | 33966 ft | 408 kts | 178° |
| 2026-05-04 11:43 | 47.20628 | 2.18554 | 33964 ft | 408 kts | 179° |
| 2026-05-04 11:44 | 47.15009 | 2.18875 | 33964 ft | 407 kts | 179° |
| 2026-05-04 11:44 | 47.09390 | 2.18709 | 33963 ft | 407 kts | 187° |
| 2026-05-04 11:45 | 47.03895 | 2.16927 | 33965 ft | 407 kts | 196° |
| 2026-05-04 11:45 | 46.98522 | 2.14299 | 33966 ft | 408 kts | 198° |
| 2026-05-04 11:46 | 46.93165 | 2.11526 | 33964 ft | 407 kts | 198° |
| 2026-05-04 11:46 | 46.87935 | 2.08856 | 33961 ft | 409 kts | 198° |
| 2026-05-04 11:47 | 46.82569 | 2.06161 | 33960 ft | 409 kts | 198° |
| 2026-05-04 11:47 | 46.77158 | 2.03472 | 33953 ft | 409 kts | 198° |
| 2026-05-04 11:48 | 46.71775 | 2.00813 | 33944 ft | 409 kts | 198° |